Time;durP1;ratioP1;P1;durP2;ratioP2;P2;SDS_P1;SDS_P2;PMS_P1;PMS_P2;Temp;Humidity;BMP_temperature;BMP_pressure;BME280_temperature;BME280_humidity;BME280_pressure;Samples;Min_cycle;Max_cycle;Signal;HPM_P1;HPM_P2
2021/07/07 00:00:13;;;;;;;7.50;6.90;;;14.20;99.90;;;;;;4994350;28;20231;-66
2021/07/07 00:02:40;;;;;;;7.70;7.10;;;14.10;99.90;;;;;;4994060;28;20189;-66
2021/07/07 00:05:07;;;;;;;8.90;7.40;;;14.00;99.90;;;;;;4994093;28;20208;-65
2021/07/07 00:07:33;;;;;;;7.43;7.03;;;14.00;99.90;;;;;;4993844;28;20533;-66
2021/07/07 00:09:59;;;;;;;7.77;7.27;;;14.00;99.90;;;;;;4994062;28;20173;-66
2021/07/07 00:12:25;;;;;;;7.83;6.60;;;13.90;99.90;;;;;;4993821;28;20189;-66
2021/07/07 00:14:51;;;;;;;8.00;7.33;;;13.90;99.90;;;;;;4993941;28;20181;-66
2021/07/07 00:17:17;;;;;;;10.17;7.37;;;13.90;99.90;;;;;;4993673;28;20259;-66
2021/07/07 00:19:42;;;;;;;8.20;7.50;;;13.90;99.90;;;;;;4993786;28;20593;-66
2021/07/07 00:22:09;;;;;;;10.93;7.57;;;13.90;99.90;;;;;;4993753;28;20356;-66
2021/07/07 00:24:34;;;;;;;8.03;7.43;;;13.80;99.90;;;;;;4993622;28;20229;-66
2021/07/07 00:27:00;;;;;;;7.70;7.10;;;13.80;99.90;;;;;;4993554;28;20203;-66
2021/07/07 00:29:25;;;;;;;8.00;7.33;;;13.80;99.90;;;;;;4993393;28;20603;-66
2021/07/07 00:31:51;;;;;;;9.33;7.30;;;13.90;99.90;;;;;;4993649;28;20197;-66
2021/07/07 00:34:16;;;;;;;7.67;6.97;;;13.80;99.90;;;;;;4993534;28;20188;-66
2021/07/07 00:36:42;;;;;;;8.37;7.57;;;13.80;99.90;;;;;;4993552;28;20633;-66
2021/07/07 00:39:08;;;;;;;8.40;7.80;;;13.80;99.90;;;;;;4993200;28;20188;-66
2021/07/07 00:41:33;;;;;;;8.07;7.37;;;13.80;99.90;;;;;;4993346;28;20720;-66
2021/07/07 00:43:59;;;;;;;8.57;7.00;;;13.80;99.90;;;;;;4993148;28;20213;-66
2021/07/07 00:46:24;;;;;;;7.63;7.13;;;13.80;99.90;;;;;;4993073;28;20200;-66
2021/07/07 00:48:50;;;;;;;8.27;7.60;;;13.80;99.90;;;;;;4992529;28;20216;-66
2021/07/07 00:51:16;;;;;;;8.20;7.40;;;13.80;99.90;;;;;;4993009;28;20600;-67
2021/07/07 00:53:43;;;;;;;7.37;6.97;;;13.80;99.90;;;;;;4993388;28;20185;-66
2021/07/07 00:56:09;;;;;;;7.53;6.83;;;13.70;99.90;;;;;;4992586;28;20184;-66
2021/07/07 00:58:36;;;;;;;7.63;7.07;;;13.60;99.90;;;;;;4993222;28;20180;-66
2021/07/07 01:01:06;;;;;;;7.50;7.00;;;13.50;99.90;;;;;;4992829;28;20200;-66
2021/07/07 01:03:33;;;;;;;10.73;7.73;;;13.50;99.90;;;;;;4993063;28;20193;-66
2021/07/07 01:06:00;;;;;;;8.50;7.80;;;13.40;99.90;;;;;;4992667;28;20588;-66
2021/07/07 01:08:25;;;;;;;8.30;7.60;;;13.40;99.90;;;;;;4993106;28;20180;-66
2021/07/07 01:10:51;;;;;;;10.03;7.40;;;13.40;99.90;;;;;;4992518;28;20674;-66
2021/07/07 01:13:16;;;;;;;8.97;8.10;;;13.50;99.90;;;;;;4991642;28;20319;-66
2021/07/07 01:15:43;;;;;;;8.53;7.73;;;13.50;99.90;;;;;;4992629;28;20180;-66
2021/07/07 01:18:09;;;;;;;8.30;7.63;;;13.60;99.90;;;;;;4993081;28;20169;-66
2021/07/07 01:20:35;;;;;;;9.00;8.20;;;13.70;99.90;;;;;;4992542;28;20653;-66
2021/07/07 01:23:03;;;;;;;8.30;7.70;;;13.80;99.90;;;;;;4992681;28;20175;-66
2021/07/07 01:25:29;;;;;;;9.67;8.80;;;13.80;99.90;;;;;;4992514;28;20252;-66
2021/07/07 01:27:55;;;;;;;7.80;7.27;;;13.80;99.90;;;;;;4991224;28;20181;-66
2021/07/07 01:30:22;;;;;;;7.30;6.80;;;13.90;99.90;;;;;;4992735;28;20540;-66
2021/07/07 01:32:48;;;;;;;8.33;7.63;;;13.90;99.90;;;;;;4992342;28;20204;-66
2021/07/07 01:35:15;;;;;;;8.23;7.40;;;13.90;99.90;;;;;;4992634;28;20264;-66
2021/07/07 01:37:41;;;;;;;10.23;8.17;;;14.00;99.90;;;;;;4992225;28;20608;-66
2021/07/07 01:40:08;;;;;;;7.97;7.30;;;14.00;99.90;;;;;;4992530;28;20275;-66
2021/07/07 01:42:33;;;;;;;9.20;8.20;;;14.00;99.90;;;;;;4992165;28;20267;-66
2021/07/07 01:45:00;;;;;;;7.97;7.20;;;14.00;99.90;;;;;;4992394;28;20204;-66
2021/07/07 01:47:25;;;;;;;7.57;6.97;;;14.00;99.90;;;;;;4990792;28;20205;-66
2021/07/07 01:49:51;;;;;;;8.00;7.20;;;14.00;99.90;;;;;;4992458;28;20211;-67
2021/07/07 01:52:17;;;;;;;8.30;7.53;;;14.00;99.90;;;;;;4991290;28;20192;-67
2021/07/07 01:54:42;;;;;;;8.13;7.37;;;14.00;99.90;;;;;;4992364;28;20176;-66
2021/07/07 01:57:08;;;;;;;8.20;7.47;;;13.90;99.90;;;;;;4990392;28;20267;-66
2021/07/07 01:59:34;;;;;;;8.03;7.10;;;13.90;99.90;;;;;;4992129;28;20175;-66
2021/07/07 02:02:00;;;;;;;8.77;7.20;;;13.90;99.90;;;;;;4991984;28;20200;-68
2021/07/07 02:04:25;;;;;;;7.50;7.00;;;13.80;99.90;;;;;;4993892;28;20732;-70
2021/07/07 02:06:51;;;;;;;8.47;7.83;;;13.80;99.90;;;;;;4991910;28;20208;-67
2021/07/07 02:09:19;;;;;;;8.03;7.43;;;13.70;99.90;;;;;;4996156;28;20173;-71
2021/07/07 02:11:48;;;;;;;7.40;7.00;;;13.70;99.90;;;;;;4997156;28;20227;-68
2021/07/07 02:14:15;;;;;;;7.83;7.33;;;13.70;99.90;;;;;;4997801;28;20168;-70
2021/07/07 02:16:41;;;;;;;8.50;7.67;;;13.70;99.90;;;;;;4997228;28;20693;-71
2021/07/07 02:19:07;;;;;;;8.83;8.20;;;13.70;99.90;;;;;;4997304;28;20180;-68
2021/07/07 02:21:33;;;;;;;8.87;8.20;;;13.70;99.90;;;;;;4997121;28;20196;-66
2021/07/07 02:23:58;;;;;;;11.67;8.10;;;13.60;99.90;;;;;;4997426;28;20776;-69
2021/07/07 02:26:24;;;;;;;7.57;6.83;;;13.60;99.90;;;;;;4997156;28;20181;-67
2021/07/07 02:28:49;;;;;;;9.50;8.03;;;13.60;99.90;;;;;;4996571;28;20188;-69
2021/07/07 02:31:15;;;;;;;7.77;7.13;;;13.60;99.90;;;;;;4996936;28;20209;-68
2021/07/07 02:33:41;;;;;;;8.17;7.07;;;13.60;99.90;;;;;;4997111;28;20195;-68
2021/07/07 02:36:07;;;;;;;9.03;7.33;;;13.60;99.90;;;;;;4996679;28;20177;-67
2021/07/07 02:38:33;;;;;;;9.43;7.10;;;13.50;99.90;;;;;;4997327;28;20638;-69
2021/07/07 02:40:59;;;;;;;8.17;7.47;;;13.50;99.90;;;;;;4996622;28;20220;-69
2021/07/07 02:43:25;;;;;;;10.13;7.13;;;13.50;99.90;;;;;;4996662;28;20296;-70
2021/07/07 02:45:51;;;;;;;11.50;7.60;;;13.50;99.90;;;;;;4996478;28;20713;-68
2021/07/07 02:48:17;;;;;;;8.50;7.80;;;13.50;99.90;;;;;;4996793;28;20183;-68
2021/07/07 02:50:44;;;;;;;12.13;7.87;;;13.50;99.90;;;;;;4996782;28;20248;-67
2021/07/07 02:53:12;;;;;;;9.67;7.63;;;13.50;99.90;;;;;;4996969;28;20192;-70
2021/07/07 02:55:38;;;;;;;8.57;7.60;;;13.40;99.90;;;;;;4996785;28;20173;-71
2021/07/07 02:58:05;;;;;;;7.93;7.07;;;13.40;99.90;;;;;;4997004;28;20230;-70
2021/07/07 03:00:36;;;;;;;7.20;6.80;;;13.40;99.90;;;;;;4996990;28;20251;-68
2021/07/07 03:03:14;;;;;;;9.10;8.33;;;13.30;99.90;;;;;;4996415;28;20547;-68
2021/07/07 03:05:46;;;;;;;7.90;7.30;;;13.30;99.90;;;;;;4996408;28;20276;-69
2021/07/07 03:08:13;;;;;;;8.47;7.80;;;13.30;99.90;;;;;;4996365;28;20181;-69
2021/07/07 03:10:40;;;;;;;8.40;6.80;;;13.40;99.90;;;;;;4996565;28;20535;-68
2021/07/07 03:13:06;;;;;;;8.00;7.50;;;13.40;99.90;;;;;;4996675;28;20650;-69
2021/07/07 03:15:35;;;;;;;9.27;7.60;;;13.30;99.90;;;;;;4996969;28;20220;-70
2021/07/07 03:18:01;;;;;;;9.70;8.23;;;13.30;99.90;;;;;;4996449;28;20199;-68
2021/07/07 03:20:26;;;;;;;8.60;7.80;;;13.20;99.90;;;;;;4996351;28;20249;-70
2021/07/07 03:22:52;;;;;;;8.50;7.33;;;13.20;99.90;;;;;;4996522;28;20181;-68
2021/07/07 03:25:18;;;;;;;8.30;7.50;;;13.20;99.90;;;;;;4996686;28;20284;-69
2021/07/07 03:27:43;;;;;;;7.80;7.30;;;13.20;99.90;;;;;;4994585;28;20180;-67
2021/07/07 03:30:10;;;;;;;9.00;7.97;;;13.20;99.90;;;;;;4996392;28;20177;-69
2021/07/07 03:32:35;;;;;;;8.47;7.57;;;13.20;99.90;;;;;;4995247;28;20267;-67
2021/07/07 03:35:02;;;;;;;7.97;7.47;;;13.10;99.90;;;;;;4996520;28;20239;-68
2021/07/07 03:37:28;;;;;;;12.83;7.83;;;13.20;99.90;;;;;;4995175;28;20192;-69
2021/07/07 03:39:54;;;;;;;8.97;8.07;;;13.20;99.90;;;;;;4995846;28;20670;-69
2021/07/07 03:42:20;;;;;;;9.40;8.07;;;13.20;99.90;;;;;;4995850;28;20209;-68
2021/07/07 03:44:45;;;;;;;8.50;7.90;;;13.20;99.90;;;;;;4996325;28;20220;-70
2021/07/07 03:47:11;;;;;;;8.73;8.03;;;13.10;99.90;;;;;;4995929;28;20184;-71
2021/07/07 03:49:37;;;;;;;8.43;7.63;;;13.10;99.90;;;;;;4996325;28;20172;-67
2021/07/07 03:52:04;;;;;;;8.13;7.33;;;13.20;99.90;;;;;;4994589;28;20666;-65
2021/07/07 03:54:30;;;;;;;9.63;7.93;;;13.20;99.90;;;;;;4994438;28;20173;-65
2021/07/07 03:56:56;;;;;;;8.87;7.97;;;13.30;99.90;;;;;;4993639;28;20235;-65
2021/07/07 03:59:22;;;;;;;8.43;7.50;;;13.30;99.90;;;;;;4994462;28;20651;-65
2021/07/07 04:01:49;;;;;;;8.37;7.77;;;13.40;99.90;;;;;;4993891;28;20201;-64
2021/07/07 04:04:15;;;;;;;9.47;8.07;;;13.50;99.90;;;;;;4994193;28;20207;-64
2021/07/07 04:06:41;;;;;;;8.40;7.60;;;13.50;99.90;;;;;;4993864;28;20181;-64
2021/07/07 04:09:07;;;;;;;8.87;8.00;;;13.60;99.90;;;;;;4993915;28;20177;-64
2021/07/07 04:11:33;;;;;;;8.80;7.83;;;13.70;99.90;;;;;;4993729;28;20254;-64
2021/07/07 04:13:58;;;;;;;7.87;7.20;;;13.90;99.90;;;;;;4994120;28;20591;-64
2021/07/07 04:16:24;;;;;;;8.50;7.73;;;14.00;99.90;;;;;;4993649;28;20188;-65
2021/07/07 04:18:51;;;;;;;8.07;7.57;;;14.00;99.90;;;;;;4993977;28;20276;-64
2021/07/07 04:21:16;;;;;;;8.03;7.33;;;14.20;99.90;;;;;;4993641;28;20270;-65
2021/07/07 04:23:42;;;;;;;8.77;7.23;;;14.20;99.90;;;;;;4993679;28;20200;-64
2021/07/07 04:26:08;;;;;;;8.93;7.10;;;14.40;99.90;;;;;;4993445;28;20545;-65
2021/07/07 04:28:33;;;;;;;9.37;7.87;;;14.50;99.90;;;;;;4993806;28;20239;-64
2021/07/07 04:30:59;;;;;;;7.33;6.63;;;14.60;99.90;;;;;;4992700;28;20204;-64
2021/07/07 04:33:24;;;;;;;9.47;7.77;;;14.60;99.90;;;;;;4993740;28;20169;-64
2021/07/07 04:35:50;;;;;;;9.33;8.37;;;14.60;99.90;;;;;;4993188;28;20172;-65
2021/07/07 04:38:16;;;;;;;7.67;7.00;;;14.60;99.90;;;;;;4992747;28;20532;-64
2021/07/07 04:43:15;;;;;;;7.17;6.53;;;14.80;99.90;;;;;;5011793;28;20634;-65
2021/07/07 04:45:41;;;;;;;7.37;6.77;;;15.00;99.90;;;;;;5012666;28;20172;-65
2021/07/07 04:48:07;;;;;;;7.30;6.80;;;15.20;99.90;;;;;;5012675;28;20633;-65
2021/07/07 04:50:32;;;;;;;7.93;7.23;;;15.30;99.90;;;;;;5012912;28;20537;-65
2021/07/07 04:52:58;;;;;;;7.90;7.17;;;15.40;99.90;;;;;;5011870;28;20239;-65
2021/07/07 04:55:23;;;;;;;7.40;6.80;;;15.50;99.90;;;;;;5012867;28;20176;-65
2021/07/07 04:57:49;;;;;;;8.07;6.80;;;15.60;99.90;;;;;;5012322;28;20192;-65
2021/07/07 05:00:20;;;;;;;7.27;6.77;;;15.80;99.90;;;;;;5012704;28;20215;-64
2021/07/07 05:02:47;;;;;;;9.20;6.23;;;15.90;99.90;;;;;;5012343;28;20200;-65
2021/07/07 05:05:14;;;;;;;7.20;6.70;;;16.10;99.90;;;;;;5012428;28;20277;-65
2021/07/07 05:07:40;;;;;;;8.27;6.60;;;16.30;99.90;;;;;;5012131;28;20303;-65
2021/07/07 05:10:07;;;;;;;7.13;6.50;;;16.50;99.90;;;;;;5012668;28;20251;-65
2021/07/07 05:12:33;;;;;;;7.57;6.97;;;16.80;99.90;;;;;;5012471;28;20204;-65
2021/07/07 05:15:00;;;;;;;11.97;7.43;;;17.20;99.90;;;;;;5012582;28;20175;-65
2021/07/07 05:17:27;;;;;;;6.73;6.33;;;17.60;99.90;;;;;;5012055;28;20286;-65
2021/07/07 05:19:53;;;;;;;8.00;6.27;;;17.80;99.90;;;;;;5012368;28;20171;-65
2021/07/07 05:22:18;;;;;;;8.73;6.80;;;17.90;99.90;;;;;;5012375;28;20282;-64
2021/07/07 05:24:45;;;;;;;6.77;6.17;;;17.90;99.90;;;;;;5012117;28;20819;-64
2021/07/07 05:27:12;;;;;;;6.07;5.60;;;17.90;99.90;;;;;;5011860;28;20172;-64
2021/07/07 05:29:38;;;;;;;6.00;5.50;;;17.90;99.90;;;;;;5012239;28;20164;-64
2021/07/07 05:32:04;;;;;;;6.70;6.20;;;18.10;99.90;;;;;;5011958;28;20210;-64
2021/07/07 05:34:30;;;;;;;6.03;5.63;;;18.30;99.90;;;;;;5012003;28;20262;-64
2021/07/07 05:36:58;;;;;;;6.93;6.23;;;18.40;99.90;;;;;;5011539;28;20619;-64
2021/07/07 05:39:24;;;;;;;6.70;6.30;;;18.50;99.90;;;;;;5042991;28;20183;-64
2021/07/07 05:41:49;;;;;;;6.97;6.30;;;18.60;99.90;;;;;;5024077;28;20219;-64
2021/07/07 05:44:15;;;;;;;6.40;5.77;;;18.60;99.90;;;;;;5011232;28;20206;-64
2021/07/07 05:46:41;;;;;;;6.37;5.93;;;18.60;99.90;;;;;;5010403;28;20196;-64
2021/07/07 05:49:06;;;;;;;5.73;5.43;;;18.60;99.90;;;;;;5011789;28;20236;-64
2021/07/07 05:51:32;;;;;;;7.10;6.40;;;18.60;99.90;;;;;;5011599;28;20208;-64
2021/07/07 05:53:58;;;;;;;9.67;6.20;;;18.50;99.90;;;;;;5011802;28;20180;-64
2021/07/07 05:56:23;;;;;;;6.60;6.17;;;18.50;99.90;;;;;;5011515;28;20211;-64
2021/07/07 05:58:49;;;;;;;7.03;6.50;;;18.50;99.90;;;;;;5011700;28;20638;-64
2021/07/07 06:01:16;;;;;;;6.03;5.63;;;18.60;99.90;;;;;;5011576;28;20212;-64
2021/07/07 06:03:42;;;;;;;7.03;6.63;;;18.70;99.90;;;;;;5011644;28;20203;-64
2021/07/07 06:06:08;;;;;;;7.17;6.67;;;18.70;99.90;;;;;;5011302;28;20208;-64
2021/07/07 06:08:34;;;;;;;7.00;6.00;;;18.80;99.90;;;;;;5010613;28;20646;-64
2021/07/07 06:11:00;;;;;;;6.93;6.50;;;19.00;99.90;;;;;;5011478;28;20207;-64
2021/07/07 06:13:25;;;;;;;7.60;7.07;;;19.30;99.90;;;;;;5011743;28;20247;-63
2021/07/07 06:15:51;;;;;;;6.53;6.00;;;19.40;99.90;;;;;;5010913;28;20187;-64
2021/07/07 06:18:17;;;;;;;8.53;7.93;;;19.40;99.90;;;;;;5011733;28;20164;-65
2021/07/07 06:20:43;;;;;;;9.33;8.00;;;19.40;99.90;;;;;;5011446;28;20180;-65
2021/07/07 06:23:08;;;;;;;6.47;5.97;;;19.30;99.90;;;;;;5011481;28;20207;-64
2021/07/07 06:25:34;;;;;;;6.80;6.30;;;19.20;99.90;;;;;;5011404;28;20200;-63
2021/07/07 06:28:00;;;;;;;6.17;5.70;;;19.10;99.90;;;;;;5011272;28;20183;-65
2021/07/07 06:30:27;;;;;;;6.43;5.83;;;19.10;99.90;;;;;;5011432;28;20204;-64
2021/07/07 06:32:54;;;;;;;6.63;6.00;;;19.20;99.90;;;;;;5011370;28;20226;-64
2021/07/07 06:35:21;;;;;;;6.93;6.50;;;19.30;99.90;;;;;;5011363;28;20179;-65
2021/07/07 06:37:48;;;;;;;7.60;7.10;;;19.40;99.90;;;;;;5010291;28;20226;-64
2021/07/07 06:40:16;;;;;;;8.37;7.77;;;19.60;99.90;;;;;;5011631;28;20168;-65
2021/07/07 06:42:41;;;;;;;7.70;7.10;;;19.60;99.90;;;;;;5011301;28;20211;-64
2021/07/07 06:45:09;;;;;;;7.17;6.47;;;19.80;99.90;;;;;;5011319;28;20219;-64
2021/07/07 06:47:36;;;;;;;6.57;6.23;;;20.00;99.90;;;;;;5011054;28;20226;-65
2021/07/07 06:50:04;;;;;;;7.27;6.07;;;20.20;99.90;;;;;;5011305;28;20180;-65
2021/07/07 06:52:30;;;;;;;7.50;6.87;;;20.30;99.90;;;;;;5011174;28;20667;-65
2021/07/07 06:54:56;;;;;;;6.40;6.00;;;20.40;99.90;;;;;;5013151;28;20222;-65
2021/07/07 06:57:21;;;;;;;6.60;6.10;;;20.60;99.90;;;;;;5014499;28;20183;-65
2021/07/07 06:59:47;;;;;;;7.05;6.43;;;20.90;99.90;;;;;;5014824;28;20179;-64
2021/07/07 07:02:12;;;;;;;6.82;6.38;;;21.30;99.90;;;;;;5014717;28;20204;-64
2021/07/07 07:04:38;;;;;;;5.40;5.00;;;21.50;99.90;;;;;;5014746;28;20227;-65
2021/07/07 07:07:04;;;;;;;6.10;5.70;;;21.60;99.90;;;;;;5014340;28;20180;-64
2021/07/07 07:09:30;;;;;;;6.07;5.55;;;21.70;99.90;;;;;;5014670;28;20185;-65
2021/07/07 07:11:55;;;;;;;6.10;5.60;;;21.50;99.90;;;;;;5014248;28;20680;-64
2021/07/07 07:14:21;;;;;;;6.18;5.63;;;21.20;99.90;;;;;;5014892;28;20176;-65
2021/07/07 07:16:47;;;;;;;7.05;6.53;;;21.00;99.90;;;;;;5013970;28;20209;-64
2021/07/07 07:19:14;;;;;;;6.50;6.00;;;21.00;99.90;;;;;;5014477;28;20180;-64
2021/07/07 07:21:40;;;;;;;6.53;5.93;;;21.10;99.90;;;;;;5014230;28;21343;-64
2021/07/07 07:24:07;;;;;;;5.43;4.90;;;21.20;99.90;;;;;;5014458;28;20243;-64
2021/07/07 07:26:33;;;;;;;6.43;4.72;;;21.50;99.90;;;;;;5013846;28;20176;-64
2021/07/07 07:29:00;;;;;;;5.97;5.38;;;21.60;99.90;;;;;;5014013;28;20172;-64
2021/07/07 07:31:26;;;;;;;5.90;5.35;;;21.80;99.90;;;;;;5014039;28;20192;-64
2021/07/07 07:33:51;;;;;;;5.40;4.90;;;22.20;99.90;;;;;;5014160;28;20176;-65
2021/07/07 07:36:19;;;;;;;5.25;4.80;;;22.50;99.90;;;;;;5013887;28;20549;-64
2021/07/07 07:38:47;;;;;;;5.15;4.75;;;22.80;99.90;;;;;;5013778;28;20165;-65
2021/07/07 07:41:14;;;;;;;5.63;5.10;;;23.00;99.90;;;;;;5013667;28;20245;-65
2021/07/07 07:43:42;;;;;;;5.72;4.82;;;23.30;99.90;;;;;;5013737;28;20283;-65
2021/07/07 07:46:08;;;;;;;5.00;4.60;;;23.60;99.90;;;;;;5013601;28;20256;-64
2021/07/07 07:48:33;;;;;;;5.50;5.20;;;23.70;99.90;;;;;;5013838;28;20255;-65
2021/07/07 07:50:59;;;;;;;5.65;5.30;;;23.90;99.90;;;;;;5013401;28;20255;-65
2021/07/07 07:53:25;;;;;;;5.70;4.63;;;24.30;99.90;;;;;;5013022;28;20184;-65
2021/07/07 07:55:51;;;;;;;4.95;4.53;;;24.60;99.90;;;;;;5013543;28;20172;-65
2021/07/07 07:58:18;;;;;;;5.30;4.80;;;24.80;99.90;;;;;;5013864;28;20176;-65
2021/07/07 08:00:45;;;;;;;5.97;5.55;;;25.10;99.90;;;;;;5013824;28;20172;-65
2021/07/07 08:03:12;;;;;;;5.03;4.72;;;25.40;99.90;;;;;;5013591;28;20206;-65
2021/07/07 08:05:38;;;;;;;5.15;4.82;;;25.50;99.90;;;;;;5012623;28;20204;-65
2021/07/07 08:08:03;;;;;;;5.07;4.40;;;25.60;99.90;;;;;;5012148;28;20259;-65
2021/07/07 08:10:30;;;;;;;5.18;4.68;;;25.80;99.90;;;;;;5013775;28;20199;-65
2021/07/07 08:12:56;;;;;;;5.20;4.80;;;25.80;99.90;;;;;;5013581;28;20192;-65
2021/07/07 08:15:24;;;;;;;5.38;4.88;;;25.80;99.90;;;;;;5013512;28;20172;-65
2021/07/07 08:17:50;;;;;;;4.60;4.30;;;26.00;99.90;;;;;;5013054;28;20180;-66
2021/07/07 08:20:17;;;;;;;5.10;4.60;;;26.30;99.90;;;;;;5013355;28;20657;-65
2021/07/07 08:22:43;;;;;;;4.63;4.22;;;26.70;99.90;;;;;;5013314;28;20192;-65
2021/07/07 08:25:10;;;;;;;4.70;4.30;;;26.70;99.90;;;;;;5012613;28;20243;-65
2021/07/07 08:27:36;;;;;;;4.88;4.47;;;27.10;99.90;;;;;;5013009;28;20306;-65
2021/07/07 08:30:05;;;;;;;6.65;5.13;;;27.30;99.90;;;;;;5017243;28;20266;-65
2021/07/07 08:32:30;;;;;;;6.05;5.57;;;27.50;99.90;;;;;;5032907;28;20285;-66
2021/07/07 08:34:56;;;;;;;5.88;5.05;;;27.30;99.90;;;;;;5032999;28;20183;-65
2021/07/07 08:37:22;;;;;;;5.20;4.80;;;27.20;99.90;;;;;;5014084;28;20188;-66
2021/07/07 08:39:47;;;;;;;7.10;4.90;;;27.10;99.90;;;;;;5013058;28;20188;-65
2021/07/07 08:42:14;;;;;;;8.55;4.68;;;27.30;99.90;;;;;;5013451;28;20216;-65
2021/07/07 08:44:42;;;;;;;5.30;4.90;;;27.50;99.90;;;;;;5011912;28;20226;-66
2021/07/07 08:47:08;;;;;;;4.88;4.60;;;27.70;99.90;;;;;;5012530;28;20657;-66
2021/07/07 08:49:34;;;;;;;5.47;5.00;;;27.80;99.90;;;;;;5012881;28;20183;-65
2021/07/07 08:51:59;;;;;;;5.35;4.55;;;28.00;99.90;;;;;;5011312;28;20737;-66
2021/07/07 08:54:25;;;;;;;3.88;3.60;;;28.00;99.90;;;;;;5012900;28;20574;-66
2021/07/07 08:56:51;;;;;;;5.82;4.82;;;27.20;99.90;;;;;;5012489;28;20167;-66
2021/07/07 08:59:18;;;;;;;4.88;4.40;;;26.60;99.90;;;;;;5011347;28;20177;-65
2021/07/07 09:02:09;;;;;;;3.80;3.60;;;26.00;99.90;;;;;;5012604;28;20200;-65
2021/07/07 09:04:38;;;;;;;3.85;3.65;;;25.60;99.90;;;;;;5012613;28;20291;-65
2021/07/07 09:07:13;;;;;;;4.20;3.90;;;26.00;99.90;;;;;;5012225;28;20595;-65
2021/07/07 09:09:47;;;;;;;5.40;4.38;;;26.60;99.90;;;;;;5012184;28;20171;-66
2021/07/07 09:12:26;;;;;;;5.88;4.38;;;27.00;99.90;;;;;;5025836;28;20203;-66
2021/07/07 09:15:25;;;;;;;4.00;3.80;;;27.00;99.90;;;;;;5032114;28;20257;-65
2021/07/07 09:17:51;;;;;;;4.35;4.15;;;27.20;99.90;;;;;;5008774;28;20195;-65
2021/07/07 09:20:26;;;;;;;4.30;4.10;;;27.40;99.90;;;;;;5025479;28;20322;-65
2021/07/07 09:23:21;;;;;;;5.65;4.32;;;27.00;99.90;;;;;;5010896;28;20199;-65
2021/07/07 09:25:56;;;;;;;4.50;4.10;;;26.60;99.90;;;;;;5011974;28;20634;-66
2021/07/07 09:28:31;;;;;;;4.60;4.30;;;26.00;99.90;;;;;;5011936;28;20225;-65
2021/07/07 09:31:02;;;;;;;5.30;5.00;;;25.60;99.90;;;;;;5011976;28;20168;-66
2021/07/07 09:33:39;;;;;;;4.35;3.95;;;25.20;99.90;;;;;;5011925;28;20168;-66
2021/07/07 09:36:25;;;;;;;5.90;4.30;;;24.80;99.90;;;;;;5011507;28;20187;-66
2021/07/07 09:38:52;;;;;;;5.15;4.20;;;24.30;99.90;;;;;;5011835;28;20584;-66
2021/07/07 09:41:20;;;;;;;5.82;5.30;;;24.00;99.90;;;;;;5011852;28;20261;-66
2021/07/07 09:43:51;;;;;;;5.90;5.40;;;24.00;99.90;;;;;;5011765;28;20662;-66
2021/07/07 09:46:19;;;;;;;5.32;5.00;;;24.00;99.90;;;;;;5011666;28;20164;-66
2021/07/07 09:48:47;;;;;;;5.20;4.72;;;24.10;99.90;;;;;;5011919;28;20172;-67
2021/07/07 09:51:12;;;;;;;5.80;5.35;;;24.10;99.90;;;;;;5011837;28;20820;-66
2021/07/07 09:53:38;;;;;;;4.53;4.15;;;24.60;99.90;;;;;;5011736;28;20214;-66
2021/07/07 09:56:04;;;;;;;4.85;4.45;;;25.20;99.90;;;;;;5011354;28;20184;-66
2021/07/07 09:58:30;;;;;;;5.10;4.32;;;25.40;99.90;;;;;;5011681;28;20277;-66
2021/07/07 10:00:56;;;;;;;4.60;4.30;;;25.40;99.90;;;;;;5011607;28;20661;-66
2021/07/07 10:03:22;;;;;;;4.07;3.78;;;25.20;99.90;;;;;;5011588;28;20168;-66
2021/07/07 10:05:47;;;;;;;4.90;4.60;;;25.60;99.90;;;;;;5011355;28;20266;-66
2021/07/07 10:08:14;;;;;;;4.68;4.30;;;26.40;99.90;;;;;;5011728;28;20645;-66
2021/07/07 10:10:41;;;;;;;4.30;4.10;;;27.40;99.90;;;;;;5011627;28;20195;-66
2021/07/07 10:13:10;;;;;;;4.03;3.78;;;27.90;99.90;;;;;;5011525;28;20200;-66
2021/07/07 10:15:36;;;;;;;4.53;4.22;;;28.50;99.90;;;;;;5011502;28;20184;-66
2021/07/07 10:18:04;;;;;;;4.55;4.25;;;28.90;99.90;;;;;;5011346;28;20168;-66
2021/07/07 10:20:30;;;;;;;5.65;5.25;;;29.10;99.90;;;;;;5011471;28;20199;-66
2021/07/07 10:22:58;;;;;;;4.60;4.18;;;29.40;99.90;;;;;;5011564;28;20200;-66
2021/07/07 10:25:27;;;;;;;4.13;3.75;;;29.90;99.90;;;;;;5011218;28;20282;-66
2021/07/07 10:27:55;;;;;;;4.72;4.43;;;30.20;99.90;;;;;;5011220;28;20678;-66
2021/07/07 10:30:22;;;;;;;4.00;3.80;;;30.80;99.90;;;;;;5014376;28;20638;-66
2021/07/07 10:33:08;;;;;;;4.53;4.22;;;31.10;99.90;;;;;;5014870;28;20202;-66
2021/07/07 10:35:34;;;;;;;4.10;3.80;;;31.20;99.90;;;;;;5015351;28;20179;-66
2021/07/07 10:38:05;;;;;;;4.32;4.03;;;30.60;99.90;;;;;;5014131;28;20845;-66
2021/07/07 10:40:34;;;;;;;3.65;3.45;;;29.80;99.90;;;;;;5015433;28;20176;-66
2021/07/07 10:43:00;;;;;;;4.85;4.45;;;29.20;99.90;;;;;;5005937;23;20225;-66
2021/07/07 10:45:39;;;;;;;4.10;3.85;;;28.30;99.90;;;;;;4995343;28;20197;-66
2021/07/07 10:48:25;;;;;;;4.00;3.80;;;27.60;99.90;;;;;;4995263;28;20185;-65
2021/07/07 10:50:52;;;;;;;4.53;4.22;;;27.20;99.90;;;;;;4995324;28;20169;-66
2021/07/07 10:53:25;;;;;;;4.22;3.92;;;26.90;99.90;;;;;;4995141;28;20271;-66
2021/07/07 10:55:51;;;;;;;4.22;3.97;;;26.60;99.90;;;;;;4994994;28;20231;-66
2021/07/07 10:58:35;;;;;;;3.88;3.60;;;26.30;99.90;;;;;;4995187;28;20172;-66
2021/07/07 11:01:01;;;;;;;4.78;4.53;;;26.10;99.90;;;;;;4994883;28;20673;-66
2021/07/07 11:03:35;;;;;;;5.50;4.95;;;26.00;99.90;;;;;;4994879;28;20204;-66
2021/07/07 11:06:23;;;;;;;5.15;4.78;;;26.10;99.90;;;;;;4994447;28;20662;-66
2021/07/07 11:08:50;;;;;;;5.03;4.72;;;26.20;99.90;;;;;;4995071;28;20168;-66
2021/07/07 11:11:23;;;;;;;4.70;4.40;;;26.10;99.90;;;;;;4994840;28;20184;-66
2021/07/07 11:13:54;;;;;;;4.60;4.30;;;26.10;99.90;;;;;;4994980;28;20631;-66
2021/07/07 11:16:24;;;;;;;4.55;4.10;;;25.90;99.90;;;;;;4994833;28;20274;-65
2021/07/07 11:18:51;;;;;;;4.40;4.10;;;25.80;99.90;;;;;;4994782;28;20541;-66
2021/07/07 11:21:18;;;;;;;5.00;4.13;;;25.80;99.90;;;;;;4994618;28;20177;-66
2021/07/07 11:23:45;;;;;;;4.95;4.60;;;26.10;99.90;;;;;;4994654;28;20205;-66
2021/07/07 11:26:13;;;;;;;4.53;4.15;;;26.70;99.90;;;;;;4994310;28;20871;-66
2021/07/07 11:28:41;;;;;;;3.97;3.67;;;27.00;99.90;;;;;;4994654;28;20180;-66
2021/07/07 11:31:07;;;;;;;4.50;4.10;;;27.20;99.90;;;;;;4994366;28;20177;-66
2021/07/07 11:33:32;;;;;;;4.40;4.20;;;27.70;99.90;;;;;;4994550;28;20717;-66
2021/07/07 11:35:58;;;;;;;5.03;4.53;;;27.80;99.90;;;;;;4993871;28;20173;-66
2021/07/07 11:38:29;;;;;;;4.22;3.95;;;27.70;99.90;;;;;;4993583;28;20173;-66
2021/07/07 11:40:56;;;;;;;5.68;4.53;;;28.10;99.90;;;;;;4993993;28;20700;-66
2021/07/07 11:43:25;;;;;;;4.57;4.38;;;28.50;99.90;;;;;;4994150;28;20217;-66
2021/07/07 11:46:03;;;;;;;4.95;4.47;;;28.70;99.90;;;;;;4992551;28;20543;-66
2021/07/07 11:51:13;;;;;;;5.07;4.68;;;28.50;99.90;;;;;;4993846;28;20180;-66
2021/07/07 11:53:47;;;;;;;4.10;3.90;;;27.90;99.90;;;;;;4994257;28;20260;-66
2021/07/07 11:56:20;;;;;;;4.63;4.13;;;27.30;99.90;;;;;;4993804;28;20184;-66
2021/07/07 11:58:54;;;;;;;4.45;4.18;;;27.20;99.90;;;;;;4994097;28;20212;-66
2021/07/07 12:01:24;;;;;;;3.92;3.65;;;26.90;99.90;;;;;;4994070;28;20647;-66
2021/07/07 12:03:57;;;;;;;4.20;4.00;;;27.00;99.90;;;;;;4994072;28;20200;-66
2021/07/07 12:06:38;;;;;;;5.40;5.10;;;27.70;99.90;;;;;;4993665;28;20655;-66
2021/07/07 12:09:18;;;;;;;4.50;4.20;;;28.50;99.90;;;;;;4993936;28;20555;-66
2021/07/07 12:11:55;;;;;;;5.72;4.22;;;29.20;99.90;;;;;;4993736;28;20212;-66
2021/07/07 12:14:24;;;;;;;4.07;3.78;;;29.40;99.90;;;;;;4993965;28;20319;-66
2021/07/07 12:16:51;;;;;;;4.45;4.10;;;29.00;99.90;;;;;;4993499;28;20606;-66
2021/07/07 12:19:17;;;;;;;5.68;4.63;;;29.00;99.90;;;;;;4993652;28;20177;-66
2021/07/07 12:21:45;;;;;;;4.63;4.43;;;28.80;99.90;;;;;;4993356;28;20275;-66
2021/07/07 12:24:17;;;;;;;4.78;4.38;;;28.30;99.90;;;;;;4993666;28;21009;-66
2021/07/07 12:26:45;;;;;;;4.40;4.10;;;28.00;99.90;;;;;;4993295;28;20183;-66
2021/07/07 12:29:24;;;;;;;6.22;4.15;;;27.70;99.90;;;;;;4993579;28;20176;-66
2021/07/07 12:31:53;;;;;;;5.00;4.60;;;27.50;99.90;;;;;;4993480;28;20200;-66
2021/07/07 12:34:25;;;;;;;5.70;4.15;;;27.30;99.90;;;;;;4993819;28;20596;-66
2021/07/07 12:36:53;;;;;;;5.10;4.72;;;27.10;99.90;;;;;;4991819;28;20612;-65
2021/07/07 12:39:21;;;;;;;4.53;4.05;;;26.90;99.90;;;;;;4992840;28;20181;-66
2021/07/07 12:41:53;;;;;;;4.20;3.90;;;26.60;99.90;;;;;;4992983;28;20208;-66
2021/07/07 12:44:28;;;;;;;4.30;4.00;;;26.50;99.90;;;;;;4993548;28;20208;-66
2021/07/07 12:46:59;;;;;;;4.75;4.30;;;26.60;99.90;;;;;;4992897;28;20223;-66
2021/07/07 12:49:50;;;;;;;4.38;4.07;;;26.50;99.90;;;;;;4993446;28;20173;-66
2021/07/07 12:52:24;;;;;;;5.60;5.18;;;26.50;99.90;;;;;;4992688;28;20208;-66